createdAt,value
2019-01-29T00:00:33.194Z,94256
2019-01-29T00:01:42.738Z,94251
2019-01-29T00:02:52.258Z,94257
2019-01-29T00:04:01.775Z,94253
2019-01-29T00:05:11.298Z,94261
2019-01-29T00:06:20.809Z,94283
2019-01-29T00:07:30.346Z,94259
2019-01-29T00:08:39.869Z,94266
2019-01-29T00:09:49.493Z,94259
2019-01-29T00:10:58.948Z,94263
2019-01-29T00:12:08.482Z,94263
2019-01-29T00:13:17.986Z,94259
2019-01-29T00:14:27.517Z,94259
2019-01-29T00:15:37.033Z,94259
2019-01-29T00:16:46.590Z,94266
2019-01-29T00:17:56.090Z,94256
2019-01-29T00:19:05.629Z,94264
2019-01-29T00:20:15.139Z,94266
2019-01-29T00:21:24.655Z,94268
2019-01-29T00:22:34.163Z,94266
2019-01-29T00:23:43.664Z,94267
2019-01-29T00:24:53.182Z,94270
2019-01-29T00:26:02.693Z,94273
2019-01-29T00:27:12.225Z,94276
2019-01-29T00:28:21.759Z,94273
2019-01-29T00:29:31.267Z,94277
2019-01-29T00:30:40.802Z,94277
2019-01-29T00:31:50.348Z,94266
2019-01-29T00:33:00.861Z,94276
2019-01-29T00:34:10.389Z,94275
2019-01-29T00:35:19.914Z,94280
2019-01-29T00:36:29.424Z,94273
2019-01-29T00:37:38.981Z,94285
2019-01-29T00:38:48.509Z,94280
2019-01-29T00:39:58.037Z,94284
2019-01-29T00:41:07.576Z,94287
2019-01-29T00:42:17.115Z,94281
2019-01-29T00:43:26.622Z,94281
2019-01-29T00:44:36.144Z,94280
2019-01-29T00:45:45.659Z,94290
2019-01-29T00:46:55.213Z,94280
2019-01-29T00:48:04.754Z,94290
2019-01-29T00:49:14.275Z,94290
2019-01-29T00:50:23.791Z,94287
2019-01-29T00:51:33.303Z,94293
2019-01-29T00:52:42.817Z,94306
2019-01-29T00:53:53.355Z,94296
2019-01-29T00:55:02.880Z,94297
2019-01-29T00:56:12.386Z,94298
2019-01-29T00:57:21.935Z,94307
2019-01-29T00:58:31.448Z,94301
2019-01-29T00:59:40.975Z,94310
2019-01-29T01:00:50.518Z,94305
2019-01-29T01:02:00.010Z,94306
2019-01-29T01:03:09.550Z,94309
2019-01-29T01:04:19.066Z,94314
2019-01-29T01:05:28.581Z,94304
2019-01-29T01:06:38.110Z,94310
2019-01-29T01:07:47.645Z,94311
2019-01-29T01:08:57.172Z,94321
2019-01-29T01:10:06.689Z,94318
2019-01-29T01:11:16.223Z,94314
2019-01-29T01:12:25.763Z,94316
2019-01-29T01:13:35.297Z,94318
2019-01-29T01:14:44.808Z,94320
2019-01-29T01:15:54.382Z,94324
2019-01-29T01:17:03.892Z,94337
2019-01-29T01:18:13.411Z,94330
2019-01-29T01:19:22.955Z,94323
2019-01-29T01:20:32.481Z,94330
2019-01-29T01:21:42.001Z,94334
2019-01-29T01:22:51.598Z,94327
2019-01-29T01:24:01.056Z,94328
2019-01-29T01:25:10.577Z,94338
2019-01-29T01:26:20.114Z,94331
2019-01-29T01:27:29.641Z,94340
2019-01-29T01:28:39.169Z,94340
2019-01-29T01:29:48.699Z,94341
2019-01-29T01:30:58.240Z,94339
2019-01-29T01:32:07.870Z,94353
2019-01-29T01:33:17.480Z,94345
2019-01-29T01:34:27.111Z,94346
2019-01-29T01:35:36.743Z,94346
2019-01-29T01:36:46.351Z,94349
2019-01-29T01:37:56.042Z,94355
2019-01-29T01:39:05.736Z,94352
2019-01-29T01:40:15.319Z,94356
2019-01-29T01:41:25.114Z,94354
2019-01-29T01:42:34.739Z,94355
2019-01-29T01:43:44.317Z,94358
2019-01-29T01:44:53.892Z,94357
2019-01-29T01:46:03.483Z,94361
2019-01-29T01:47:13.136Z,94361
2019-01-29T01:48:22.750Z,94363
2019-01-29T01:49:32.318Z,94361
2019-01-29T01:50:41.926Z,94365
2019-01-29T01:51:51.507Z,94362
2019-01-29T01:53:01.109Z,94365
2019-01-29T01:54:10.681Z,94365
2019-01-29T01:55:20.236Z,94368
2019-01-29T01:56:29.819Z,94366
2019-01-29T01:57:40.462Z,94370
2019-01-29T01:58:50.073Z,94368
2019-01-29T01:59:59.717Z,94373
2019-01-29T02:01:09.375Z,94369
2019-01-29T02:02:18.982Z,94372
2019-01-29T02:03:28.563Z,94372
2019-01-29T02:04:38.145Z,94374
2019-01-29T02:05:47.754Z,94373
2019-01-29T02:06:57.318Z,94376
2019-01-29T02:08:06.994Z,94372
2019-01-29T02:09:16.588Z,94378
2019-01-29T02:10:26.242Z,94381
2019-01-29T02:11:35.853Z,94381
2019-01-29T02:12:45.476Z,94380
2019-01-29T02:13:55.271Z,94386
2019-01-29T02:15:04.974Z,94386
2019-01-29T02:16:14.561Z,94381
2019-01-29T02:17:24.242Z,94388
2019-01-29T02:18:33.947Z,94393
2019-01-29T02:19:43.540Z,94386
2019-01-29T02:20:53.121Z,94384
2019-01-29T02:22:02.792Z,94393
2019-01-29T02:23:12.628Z,94395
2019-01-29T02:24:22.303Z,94393
2019-01-29T02:25:31.901Z,94399
2019-01-29T02:26:41.550Z,94399
2019-01-29T02:27:51.228Z,94410
2019-01-29T02:29:00.879Z,94407
2019-01-29T02:30:10.541Z,94408
2019-01-29T02:31:20.112Z,94405
2019-01-29T02:32:29.712Z,94414
2019-01-29T02:33:39.363Z,94406
2019-01-29T02:34:48.940Z,94413
2019-01-29T02:35:58.528Z,94412
2019-01-29T02:37:08.129Z,94415
2019-01-29T02:38:17.800Z,94413
2019-01-29T02:39:27.422Z,94415
2019-01-29T02:40:37.073Z,94409
2019-01-29T02:41:46.773Z,94412
2019-01-29T02:42:56.434Z,94417
2019-01-29T02:44:06.096Z,94428
2019-01-29T02:45:15.699Z,94427
2019-01-29T02:46:25.282Z,94420
2019-01-29T02:47:34.890Z,94429
2019-01-29T02:48:44.505Z,94429
2019-01-29T02:49:54.099Z,94429
2019-01-29T02:51:03.728Z,94434
2019-01-29T02:52:13.362Z,94434
2019-01-29T02:53:23.019Z,94433
2019-01-29T02:54:33.810Z,94435
2019-01-29T02:55:43.486Z,94438
2019-01-29T02:56:53.112Z,94438
2019-01-29T02:58:02.840Z,94436
2019-01-29T02:59:12.609Z,94437
2019-01-29T03:00:22.241Z,94446
2019-01-29T03:01:31.883Z,94441
2019-01-29T03:02:41.548Z,94442
2019-01-29T03:03:51.252Z,94442
2019-01-29T03:05:00.887Z,94444
2019-01-29T03:06:10.453Z,94438
2019-01-29T03:07:20.079Z,94442
2019-01-29T03:08:29.691Z,94440
2019-01-29T03:09:40.305Z,94437
2019-01-29T03:10:49.980Z,94448
2019-01-29T03:11:59.613Z,94450
2019-01-29T03:13:09.281Z,94446
2019-01-29T03:14:18.977Z,94443
2019-01-29T03:15:28.604Z,94444
2019-01-29T03:16:38.252Z,94448
2019-01-29T03:17:48.009Z,94457
2019-01-29T03:18:57.776Z,94448
2019-01-29T03:20:07.492Z,94452
2019-01-29T03:21:17.114Z,94464
2019-01-29T03:22:26.731Z,94457
2019-01-29T03:23:36.375Z,94462
2019-01-29T03:24:46.178Z,94461
2019-01-29T03:25:55.866Z,94464
2019-01-29T03:27:05.629Z,94458
2019-01-29T03:28:15.285Z,94455
2019-01-29T03:29:24.932Z,94449
2019-01-29T03:30:34.540Z,94451
2019-01-29T03:31:44.272Z,94459
2019-01-29T03:32:53.971Z,94455
2019-01-29T03:34:03.583Z,94459
2019-01-29T03:35:13.284Z,94466
2019-01-29T03:36:22.894Z,94474
2019-01-29T03:37:32.602Z,94470
2019-01-29T03:38:42.451Z,94471
2019-01-29T03:39:52.021Z,94474
2019-01-29T03:41:01.603Z,94474
2019-01-29T03:42:11.255Z,94469
2019-01-29T03:43:20.882Z,94480
2019-01-29T03:44:31.560Z,94475
2019-01-29T03:45:41.154Z,94477
2019-01-29T03:46:50.900Z,94483
2019-01-29T03:48:00.495Z,94482
2019-01-29T03:49:10.094Z,94485
2019-01-29T03:50:19.711Z,94486
2019-01-29T03:51:29.322Z,94486
2019-01-29T03:52:39.059Z,94486
2019-01-29T03:53:48.600Z,94488
2019-01-29T03:54:58.185Z,94490
2019-01-29T03:56:07.709Z,94491
2019-01-29T03:57:17.196Z,94489
2019-01-29T03:58:26.718Z,94485
2019-01-29T03:59:36.287Z,94490
2019-01-29T04:00:45.816Z,94488
2019-01-29T04:01:55.318Z,94489
2019-01-29T04:03:04.848Z,94493
2019-01-29T04:04:14.382Z,94504
2019-01-29T04:05:23.923Z,94503
2019-01-29T04:06:33.441Z,94506
2019-01-29T04:07:42.969Z,94512
2019-01-29T04:08:52.497Z,94506
2019-01-29T04:10:02.056Z,94512
2019-01-29T04:11:11.583Z,94507
2019-01-29T04:12:21.090Z,94516
2019-01-29T04:13:30.613Z,94508
2019-01-29T04:14:40.141Z,94510
2019-01-29T04:15:49.657Z,94509
2019-01-29T04:16:59.187Z,94508
2019-01-29T04:18:08.718Z,94509
2019-01-29T04:19:18.287Z,94517
2019-01-29T04:20:27.808Z,94516
2019-01-29T04:21:37.327Z,94516
2019-01-29T04:22:46.838Z,94517
2019-01-29T04:23:56.351Z,94523
2019-01-29T04:25:05.901Z,94518
2019-01-29T04:26:15.427Z,94518
2019-01-29T04:27:24.941Z,94530
2019-01-29T04:28:34.454Z,94527
2019-01-29T04:29:43.981Z,94522
2019-01-29T04:30:53.495Z,94525
2019-01-29T04:32:03.065Z,94526
2019-01-29T04:33:12.574Z,94526
2019-01-29T04:34:22.116Z,94528
2019-01-29T04:35:31.632Z,94528
2019-01-29T04:36:41.162Z,94532
2019-01-29T04:37:50.692Z,94526
2019-01-29T04:39:00.228Z,94524
2019-01-29T04:40:09.773Z,94524
2019-01-29T04:41:19.289Z,94526
2019-01-29T04:42:28.794Z,94532
2019-01-29T04:43:38.324Z,94525
2019-01-29T04:44:47.870Z,94526
2019-01-29T04:45:57.387Z,94531
2019-01-29T04:47:06.912Z,94530
2019-01-29T04:48:16.437Z,94528
2019-01-29T04:49:25.963Z,94527
2019-01-29T04:50:35.495Z,94529
2019-01-29T04:51:45.023Z,94529
2019-01-29T04:52:54.543Z,94528
2019-01-29T04:54:04.062Z,94534
2019-01-29T04:55:13.598Z,94533
2019-01-29T04:56:23.112Z,94531
2019-01-29T04:57:32.644Z,94531
2019-01-29T04:58:42.166Z,94532
2019-01-29T04:59:51.722Z,94532
2019-01-29T05:01:01.251Z,94534
2019-01-29T05:02:10.769Z,94534
2019-01-29T05:03:20.287Z,94537
2019-01-29T05:04:29.861Z,94533
2019-01-29T05:05:39.418Z,94534
2019-01-29T05:06:49.787Z,94538
2019-01-29T05:07:58.450Z,94541
2019-01-29T05:09:07.968Z,94539
2019-01-29T05:10:17.496Z,94538
2019-01-29T05:11:27.013Z,94542
2019-01-29T05:12:36.654Z,94544
2019-01-29T05:13:46.146Z,94543
2019-01-29T05:14:55.682Z,94545
2019-01-29T05:16:05.209Z,94544
2019-01-29T05:17:14.742Z,94544
2019-01-29T05:18:24.261Z,94544
2019-01-29T05:19:34.775Z,94544
2019-01-29T05:20:44.290Z,94541
2019-01-29T05:21:53.824Z,94545
2019-01-29T05:23:03.401Z,94546
2019-01-29T05:24:12.949Z,94546
2019-01-29T05:25:22.516Z,94549
2019-01-29T05:26:32.149Z,94546
2019-01-29T05:27:41.705Z,94551
2019-01-29T05:28:51.210Z,94551
2019-01-29T05:30:00.744Z,94556
2019-01-29T05:31:10.274Z,94552
2019-01-29T05:32:19.785Z,94556
2019-01-29T05:33:29.346Z,94552
2019-01-29T05:34:38.863Z,94553
2019-01-29T05:35:48.374Z,94551
2019-01-29T05:36:57.883Z,94550
2019-01-29T05:38:07.385Z,94554
2019-01-29T05:39:16.901Z,94551
2019-01-29T05:40:26.435Z,94547
2019-01-29T05:41:35.969Z,94557
2019-01-29T05:42:45.519Z,94550
2019-01-29T05:43:55.023Z,94551
2019-01-29T05:45:04.547Z,94554
2019-01-29T05:46:14.103Z,94553
2019-01-29T05:47:23.628Z,94558
2019-01-29T05:48:33.154Z,94558
2019-01-29T05:49:42.678Z,94559
2019-01-29T05:50:52.202Z,94562
2019-01-29T05:52:01.731Z,94561
2019-01-29T05:53:11.305Z,94562
2019-01-29T05:54:20.822Z,94565
2019-01-29T05:55:30.348Z,94563
2019-01-29T05:56:39.898Z,94570
2019-01-29T05:57:50.403Z,94569
2019-01-29T05:58:59.942Z,94573
2019-01-29T06:00:09.474Z,94571
2019-01-29T06:01:19.005Z,94579
2019-01-29T06:02:28.516Z,94578
2019-01-29T06:03:38.046Z,94575
2019-01-29T06:04:47.559Z,94576
2019-01-29T06:05:57.083Z,94576
2019-01-29T06:07:06.589Z,94578
2019-01-29T06:08:16.106Z,94581
2019-01-29T06:09:25.668Z,94578
2019-01-29T06:10:35.198Z,94574
2019-01-29T06:11:44.713Z,94570
2019-01-29T06:12:54.230Z,94574
2019-01-29T06:14:03.784Z,94575
2019-01-29T06:15:13.305Z,94580
2019-01-29T06:16:22.869Z,94579
2019-01-29T06:17:32.413Z,94575
2019-01-29T06:18:42.006Z,94579
2019-01-29T06:19:51.476Z,94578
2019-01-29T06:21:01.011Z,94581
2019-01-29T06:22:10.581Z,94580
2019-01-29T06:23:20.161Z,94576
2019-01-29T06:24:29.683Z,94582
2019-01-29T06:25:39.412Z,94582
2019-01-29T06:26:48.736Z,94584
2019-01-29T06:27:58.245Z,94581
2019-01-29T06:29:07.803Z,94585
2019-01-29T06:30:17.313Z,94589
2019-01-29T06:31:26.834Z,94587
2019-01-29T06:32:36.350Z,94589
2019-01-29T06:33:45.856Z,94588
2019-01-29T06:34:55.376Z,94586
2019-01-29T06:36:04.902Z,94591
2019-01-29T06:37:14.422Z,94597
2019-01-29T06:38:23.958Z,94596
2019-01-29T06:39:33.474Z,94594
2019-01-29T06:40:43.011Z,94596
2019-01-29T06:41:52.544Z,94597
2019-01-29T06:43:02.070Z,94592
2019-01-29T06:44:11.597Z,94592
2019-01-29T06:45:21.133Z,94596
2019-01-29T06:46:30.670Z,94599
2019-01-29T06:47:40.197Z,94599
2019-01-29T06:48:49.733Z,94603
2019-01-29T06:49:59.250Z,94602
2019-01-29T06:51:08.784Z,94601
2019-01-29T06:52:18.320Z,94606
2019-01-29T06:53:27.841Z,94600
2019-01-29T06:54:37.385Z,94601
2019-01-29T06:55:46.912Z,94607
2019-01-29T06:56:56.459Z,94605
2019-01-29T06:58:05.975Z,94605
2019-01-29T06:59:15.497Z,94604
2019-01-29T07:00:25.027Z,94603
2019-01-29T07:01:34.566Z,94617
2019-01-29T07:02:44.109Z,94608
2019-01-29T07:03:53.651Z,94613
2019-01-29T07:05:03.171Z,94611
2019-01-29T07:06:12.693Z,94616
2019-01-29T07:07:22.212Z,94624
2019-01-29T07:08:31.726Z,94621
2019-01-29T07:09:41.235Z,94620
2019-01-29T07:10:50.812Z,94623
2019-01-29T07:12:00.372Z,94623
2019-01-29T07:13:09.894Z,94624
2019-01-29T07:14:19.411Z,94623
2019-01-29T07:15:28.929Z,94633
2019-01-29T07:16:38.473Z,94634
2019-01-29T07:17:47.999Z,94628
2019-01-29T07:18:57.532Z,94633
2019-01-29T07:20:07.050Z,94628
2019-01-29T07:21:16.597Z,94636
2019-01-29T07:22:26.143Z,94633
2019-01-29T07:23:35.675Z,94630
2019-01-29T07:24:45.188Z,94640
2019-01-29T07:25:54.732Z,94637
2019-01-29T07:27:04.257Z,94641
2019-01-29T07:28:13.770Z,94639
2019-01-29T07:29:23.289Z,94638
2019-01-29T07:30:32.804Z,94639
2019-01-29T07:31:42.375Z,94648
2019-01-29T07:32:51.907Z,94644
2019-01-29T07:34:01.437Z,94646
2019-01-29T07:35:10.956Z,94645
2019-01-29T07:36:21.478Z,94649
2019-01-29T07:37:31.037Z,94652
2019-01-29T07:38:40.563Z,94649
2019-01-29T07:39:50.080Z,94656
2019-01-29T07:40:59.583Z,94657
2019-01-29T07:42:09.113Z,94651
2019-01-29T07:43:18.643Z,94650
2019-01-29T07:44:28.188Z,94656
2019-01-29T07:45:37.718Z,94653
2019-01-29T07:46:47.244Z,94649
2019-01-29T07:47:56.764Z,94650
2019-01-29T07:49:06.284Z,94655
2019-01-29T07:50:15.797Z,94654
2019-01-29T07:51:25.318Z,94654
2019-01-29T07:52:34.845Z,94658
2019-01-29T07:53:44.360Z,94658
2019-01-29T07:54:53.881Z,94665
2019-01-29T07:56:03.405Z,94656
2019-01-29T07:57:12.939Z,94648
2019-01-29T07:58:22.454Z,94660
2019-01-29T07:59:33.008Z,94649
2019-01-29T08:00:42.236Z,94664
2019-01-29T08:01:51.070Z,94653
2019-01-29T08:03:00.627Z,94652
2019-01-29T08:04:10.125Z,94658
2019-01-29T08:05:20.693Z,94651
2019-01-29T08:06:29.183Z,94659
2019-01-29T08:07:38.767Z,94650
2019-01-29T08:08:48.350Z,94658
2019-01-29T08:09:57.875Z,94659
2019-01-29T08:11:07.401Z,94660
2019-01-29T08:12:16.961Z,94665
2019-01-29T08:13:26.468Z,94667
2019-01-29T08:14:35.999Z,94666
2019-01-29T08:15:45.555Z,94663
2019-01-29T08:16:55.110Z,94669
2019-01-29T08:18:04.626Z,94666
2019-01-29T08:19:14.138Z,94678
2019-01-29T08:20:24.661Z,94662
2019-01-29T08:21:34.185Z,94671
2019-01-29T08:22:43.716Z,94668
2019-01-29T08:23:53.232Z,94670
2019-01-29T08:25:02.735Z,94663
2019-01-29T08:26:12.246Z,94666
2019-01-29T08:27:21.772Z,94668
2019-01-29T08:28:31.282Z,94667
2019-01-29T08:29:40.801Z,94668
2019-01-29T08:30:50.309Z,94668
2019-01-29T08:31:59.835Z,94665
2019-01-29T08:33:09.358Z,94668
2019-01-29T08:34:18.877Z,94672
2019-01-29T08:35:28.402Z,94675
2019-01-29T08:36:37.912Z,94668
2019-01-29T08:37:47.460Z,94672
2019-01-29T08:38:56.980Z,94672
2019-01-29T08:40:06.507Z,94674
2019-01-29T08:41:16.029Z,94669
2019-01-29T08:42:25.560Z,94674
2019-01-29T08:43:35.085Z,94673
2019-01-29T08:44:44.615Z,94676
2019-01-29T08:45:54.416Z,94678
2019-01-29T08:47:03.704Z,94669
2019-01-29T08:48:13.265Z,94667
2019-01-29T08:49:22.753Z,94665
2019-01-29T08:50:32.263Z,94666
2019-01-29T08:51:41.786Z,94665
2019-01-29T08:52:51.329Z,94664
2019-01-29T08:54:00.849Z,94668
2019-01-29T08:55:11.056Z,94662
2019-01-29T08:56:19.901Z,94670
2019-01-29T08:57:29.470Z,94664
2019-01-29T08:58:38.993Z,94662
2019-01-29T08:59:48.509Z,94667
2019-01-29T09:00:58.037Z,94663
2019-01-29T09:02:08.184Z,94658
2019-01-29T09:03:17.104Z,94659
2019-01-29T09:04:26.626Z,94659
2019-01-29T09:05:36.148Z,94672
2019-01-29T09:06:45.682Z,94655
2019-01-29T09:07:55.212Z,94666
2019-01-29T09:09:04.734Z,94671
2019-01-29T09:10:14.244Z,94666
2019-01-29T09:11:23.775Z,94663
2019-01-29T09:12:33.306Z,94665
2019-01-29T09:13:42.824Z,94664
2019-01-29T09:14:52.353Z,94672
2019-01-29T09:16:01.863Z,94668
2019-01-29T09:17:11.373Z,94670
2019-01-29T09:18:20.942Z,94665
2019-01-29T09:19:30.453Z,94671
2019-01-29T09:20:39.962Z,94666
2019-01-29T09:21:49.491Z,94671
2019-01-29T09:22:59.014Z,94672
2019-01-29T09:24:08.539Z,94671
2019-01-29T09:25:19.986Z,94678
2019-01-29T09:26:27.563Z,94674
2019-01-29T09:27:37.127Z,94680
2019-01-29T09:28:46.652Z,94677
2019-01-29T09:29:56.177Z,94682
2019-01-29T09:31:05.705Z,94675
2019-01-29T09:32:15.213Z,94672
2019-01-29T09:33:24.749Z,94689
2019-01-29T09:34:34.267Z,94680
2019-01-29T09:35:43.799Z,94677
2019-01-29T09:36:53.351Z,94674
2019-01-29T09:38:02.842Z,94673
2019-01-29T09:39:12.371Z,94672
2019-01-29T09:40:21.901Z,94675
2019-01-29T09:41:31.418Z,94669
2019-01-29T09:42:40.964Z,94665
2019-01-29T09:43:50.522Z,94668
2019-01-29T09:45:00.098Z,94663
2019-01-29T09:46:09.571Z,94659
2019-01-29T09:47:19.089Z,94658
2019-01-29T09:48:28.649Z,94661
2019-01-29T09:49:38.146Z,94657
2019-01-29T09:50:47.678Z,94659
2019-01-29T09:51:57.199Z,94658
2019-01-29T09:53:06.751Z,94657
2019-01-29T09:54:16.267Z,94662
2019-01-29T09:55:29.210Z,94672
2019-01-29T09:56:35.301Z,94667
2019-01-29T09:57:44.822Z,94663
2019-01-29T09:58:54.359Z,94663
2019-01-29T10:00:03.879Z,94655
2019-01-29T10:01:13.424Z,94658
2019-01-29T10:02:22.956Z,94657
2019-01-29T10:03:32.493Z,94655
2019-01-29T10:04:42.027Z,94658
2019-01-29T10:05:51.561Z,94655
2019-01-29T10:07:01.093Z,94656
2019-01-29T10:08:10.648Z,94660
2019-01-29T10:09:20.178Z,94660
2019-01-29T10:10:29.709Z,94660
2019-01-29T10:11:39.319Z,94647
2019-01-29T10:12:48.773Z,94649
2019-01-29T10:13:58.312Z,94638
2019-01-29T10:15:07.837Z,94635
2019-01-29T10:16:17.346Z,94637
2019-01-29T10:17:26.870Z,94638
2019-01-29T10:18:36.426Z,94636
2019-01-29T10:19:45.933Z,94629
2019-01-29T10:20:55.461Z,94636
2019-01-29T10:22:04.998Z,94626
2019-01-29T10:23:14.542Z,94630
2019-01-29T10:24:24.070Z,94630
2019-01-29T10:25:37.646Z,94628
2019-01-29T10:26:43.111Z,94625
2019-01-29T10:27:52.627Z,94627
2019-01-29T10:29:02.163Z,94622
2019-01-29T10:30:11.686Z,94615
2019-01-29T10:31:21.206Z,94615
2019-01-29T10:32:30.717Z,94612
2019-01-29T10:33:40.263Z,94613
2019-01-29T10:34:49.780Z,94613
2019-01-29T10:35:59.306Z,94617
2019-01-29T10:37:08.817Z,94608
2019-01-29T10:38:18.379Z,94614
2019-01-29T10:39:27.923Z,94611
2019-01-29T10:40:37.444Z,94609
2019-01-29T10:41:46.968Z,94608
2019-01-29T10:42:56.469Z,94607
2019-01-29T10:44:05.994Z,94599
2019-01-29T10:45:15.503Z,94601
2019-01-29T10:46:25.037Z,94607
2019-01-29T10:47:34.541Z,94602
2019-01-29T10:48:44.078Z,94594
2019-01-29T10:49:53.597Z,94590
2019-01-29T10:51:03.126Z,94585
2019-01-29T10:52:12.650Z,94589
2019-01-29T10:53:22.175Z,94590
2019-01-29T10:54:31.705Z,94589
2019-01-29T10:55:46.920Z,94583
2019-01-29T10:56:50.749Z,94577
2019-01-29T10:58:00.269Z,94579
2019-01-29T10:59:09.810Z,94575
2019-01-29T11:00:19.324Z,94573
2019-01-29T11:01:28.842Z,94574
2019-01-29T11:02:38.380Z,94572
2019-01-29T11:03:47.917Z,94574
2019-01-29T11:04:57.465Z,94574
2019-01-29T11:06:07.021Z,94564
2019-01-29T11:07:16.506Z,94567
2019-01-29T11:08:26.028Z,94566
2019-01-29T11:09:35.570Z,94569
2019-01-29T11:10:45.094Z,94565
2019-01-29T11:11:54.621Z,94561
2019-01-29T11:13:04.121Z,94566
2019-01-29T11:14:13.652Z,94561
2019-01-29T11:15:23.173Z,94563
2019-01-29T11:16:32.688Z,94559
2019-01-29T11:17:42.223Z,94558
2019-01-29T11:18:51.762Z,94557
2019-01-29T11:20:02.272Z,94553
2019-01-29T11:21:11.789Z,94555
2019-01-29T11:22:21.299Z,94556
2019-01-29T11:23:30.807Z,94558
2019-01-29T11:24:40.382Z,94552
2019-01-29T11:25:55.573Z,94551
2019-01-29T11:26:59.388Z,94549
2019-01-29T11:28:08.915Z,94548
2019-01-29T11:29:18.472Z,94544
2019-01-29T11:30:27.990Z,94551
2019-01-29T11:31:37.540Z,94547
2019-01-29T11:32:47.054Z,94545
2019-01-29T11:33:56.603Z,94544
2019-01-29T11:35:06.144Z,94542
2019-01-29T11:36:15.664Z,94539
2019-01-29T11:37:25.185Z,94535
2019-01-29T11:38:34.703Z,94540
2019-01-29T11:39:44.274Z,94539
2019-01-29T11:40:53.799Z,94541
2019-01-29T11:42:03.314Z,94533
2019-01-29T11:43:12.842Z,94538
2019-01-29T11:44:22.367Z,94533
2019-01-29T11:45:31.890Z,94533
2019-01-29T11:46:41.438Z,94533
2019-01-29T11:47:50.962Z,94535
2019-01-29T11:49:00.518Z,94531
2019-01-29T11:50:10.028Z,94531
2019-01-29T11:51:19.547Z,94524
2019-01-29T11:52:29.066Z,94521
2019-01-29T11:53:38.590Z,94520
2019-01-29T11:54:48.148Z,94520
2019-01-29T11:56:04.235Z,94516
2019-01-29T11:57:08.157Z,94517
2019-01-29T11:58:17.695Z,94512
2019-01-29T11:59:27.241Z,94511
2019-01-29T12:00:36.751Z,94511
2019-01-29T12:01:46.266Z,94508
2019-01-29T12:02:55.797Z,94505
2019-01-29T12:04:05.340Z,94504
2019-01-29T12:05:14.861Z,94499
2019-01-29T12:06:24.401Z,94496
2019-01-29T12:07:33.930Z,94494
2019-01-29T12:08:43.462Z,94496
2019-01-29T12:09:53.005Z,94499
2019-01-29T12:11:02.523Z,94496
2019-01-29T12:12:12.046Z,94496
2019-01-29T12:13:21.574Z,94493
2019-01-29T12:14:32.115Z,94494
2019-01-29T12:15:41.643Z,94500
2019-01-29T12:16:51.167Z,94485
2019-01-29T12:18:00.691Z,94490
2019-01-29T12:19:10.228Z,94490
2019-01-29T12:20:19.745Z,94481
2019-01-29T12:21:29.276Z,94478
2019-01-29T12:22:38.813Z,94475
2019-01-29T12:23:48.336Z,94474
2019-01-29T12:24:57.873Z,94474
2019-01-29T12:26:12.873Z,94469
2019-01-29T12:27:16.889Z,94471
2019-01-29T12:28:26.400Z,94472
2019-01-29T12:29:35.975Z,94471
2019-01-29T12:30:45.505Z,94463
2019-01-29T12:31:55.032Z,94468
2019-01-29T12:33:04.572Z,94463
2019-01-29T12:34:14.122Z,94467
2019-01-29T12:35:23.863Z,94465
2019-01-29T12:36:33.172Z,94466
2019-01-29T12:37:42.709Z,94462
2019-01-29T12:38:52.232Z,94456
2019-01-29T12:40:01.771Z,94458
2019-01-29T12:41:11.295Z,94455
2019-01-29T12:42:20.810Z,94453
2019-01-29T12:43:30.333Z,94452
2019-01-29T12:44:39.894Z,94450
2019-01-29T12:45:49.429Z,94446
2019-01-29T12:46:58.945Z,94446
2019-01-29T12:48:08.484Z,94449
2019-01-29T12:49:18.040Z,94446
2019-01-29T12:50:27.552Z,94447
2019-01-29T12:51:37.064Z,94447
2019-01-29T12:52:46.708Z,94448
2019-01-29T12:53:56.246Z,94444
2019-01-29T12:55:05.779Z,94440
2019-01-29T12:56:21.361Z,94442
2019-01-29T12:57:24.806Z,94445
2019-01-29T12:58:34.333Z,94440
2019-01-29T12:59:43.888Z,94441
2019-01-29T13:00:54.417Z,94436
2019-01-29T13:02:03.956Z,94430
2019-01-29T13:03:13.477Z,94431
2019-01-29T13:04:23.046Z,94426
2019-01-29T13:05:32.877Z,94424
2019-01-29T13:06:42.085Z,94426
2019-01-29T13:07:51.622Z,94423
2019-01-29T13:09:01.143Z,94418
2019-01-29T13:10:10.681Z,94421
2019-01-29T13:11:20.207Z,94417
2019-01-29T13:12:29.741Z,94417
2019-01-29T13:13:39.258Z,94416
2019-01-29T13:14:48.813Z,94411
2019-01-29T13:15:58.333Z,94416
2019-01-29T13:17:07.863Z,94407
2019-01-29T13:18:17.391Z,94408
2019-01-29T13:19:26.929Z,94409
2019-01-29T13:20:36.461Z,94405
2019-01-29T13:21:45.984Z,94404
2019-01-29T13:22:55.519Z,94396
2019-01-29T13:24:05.045Z,94400
2019-01-29T13:25:14.607Z,94398
2019-01-29T13:26:29.826Z,94396
2019-01-29T13:27:33.615Z,94391
2019-01-29T13:28:43.130Z,94389
2019-01-29T13:29:52.683Z,94385
2019-01-29T13:31:02.205Z,94385
2019-01-29T13:32:11.735Z,94384
2019-01-29T13:33:21.252Z,94384
2019-01-29T13:34:30.763Z,94384
2019-01-29T13:35:40.356Z,94387
2019-01-29T13:36:49.876Z,94387
2019-01-29T13:37:59.403Z,94384
2019-01-29T13:39:09.941Z,94381
2019-01-29T13:40:19.484Z,94377
2019-01-29T13:41:29.007Z,94376
2019-01-29T13:42:38.553Z,94374
2019-01-29T13:43:48.081Z,94372
2019-01-29T13:44:57.649Z,94374
2019-01-29T13:46:07.160Z,94373
2019-01-29T13:47:16.673Z,94371
2019-01-29T13:48:26.191Z,94376
2019-01-29T13:49:35.726Z,94373
2019-01-29T13:50:45.316Z,94373
2019-01-29T13:51:54.851Z,94372
2019-01-29T13:53:04.367Z,94368
2019-01-29T13:54:13.904Z,94369
2019-01-29T13:55:23.476Z,94366
2019-01-29T13:56:38.685Z,94365
2019-01-29T13:57:42.550Z,94366
2019-01-29T13:58:53.084Z,94359
2019-01-29T14:00:02.633Z,94358
2019-01-29T14:01:12.164Z,94358
2019-01-29T14:02:21.687Z,94356
2019-01-29T14:03:31.217Z,94355
2019-01-29T14:04:40.754Z,94353
2019-01-29T14:05:50.358Z,94350
2019-01-29T14:06:59.882Z,94350
2019-01-29T14:08:09.390Z,94344
2019-01-29T14:09:18.920Z,94348
2019-01-29T14:10:28.504Z,94346
2019-01-29T14:11:38.032Z,94345
2019-01-29T14:12:47.562Z,94348
2019-01-29T14:13:57.083Z,94341
2019-01-29T14:15:06.649Z,94338
2019-01-29T14:16:16.179Z,94339
2019-01-29T14:17:25.694Z,94339
2019-01-29T14:18:36.239Z,94335
2019-01-29T14:19:45.755Z,94337
2019-01-29T14:20:55.299Z,94335
2019-01-29T14:22:04.818Z,94336
2019-01-29T14:23:14.349Z,94332
2019-01-29T14:24:23.889Z,94333
2019-01-29T14:25:33.443Z,94337
2019-01-29T14:26:47.758Z,94334
2019-01-29T14:27:52.467Z,94334
2019-01-29T14:29:01.990Z,94328
2019-01-29T14:30:11.500Z,94322
2019-01-29T14:31:21.093Z,94319
2019-01-29T14:32:30.613Z,94316
2019-01-29T14:33:40.150Z,94323
2019-01-29T14:34:49.681Z,94324
2019-01-29T14:35:59.268Z,94318
2019-01-29T14:37:08.788Z,94319
2019-01-29T14:38:18.307Z,94321
2019-01-29T14:39:27.831Z,94313
2019-01-29T14:40:37.391Z,94312
2019-01-29T14:41:46.917Z,94315
2019-01-29T14:42:56.453Z,94315
2019-01-29T14:44:05.969Z,94313
2019-01-29T14:45:15.490Z,94310
2019-01-29T14:46:25.058Z,94320
2019-01-29T14:47:34.771Z,94316
2019-01-29T14:48:44.229Z,94313
2019-01-29T14:49:53.759Z,94314
2019-01-29T14:51:03.318Z,94311
2019-01-29T14:52:12.837Z,94310
2019-01-29T14:53:22.360Z,94309
2019-01-29T14:54:31.891Z,94306
2019-01-29T14:55:41.450Z,94304